sensor_id;sensor_type;location;lat;lon;timestamp;P1;durP1;ratioP1;P2;durP2;ratioP2
42866;SDS011;39461;40.948;73.006;2023-03-14T00:01:54;2.95;;;1.52;;
42866;SDS011;39461;40.948;73.006;2023-03-14T00:04:28;3.75;;;1.48;;
42866;SDS011;39461;40.948;73.006;2023-03-14T00:07:01;5.15;;;1.92;;
42866;SDS011;39461;40.948;73.006;2023-03-14T00:09:34;3.63;;;1.63;;
42866;SDS011;39461;40.948;73.006;2023-03-14T00:12:07;7.40;;;2.00;;
42866;SDS011;39461;40.948;73.006;2023-03-14T00:14:42;2.95;;;1.90;;
42866;SDS011;39461;40.948;73.006;2023-03-14T00:17:15;6.90;;;2.03;;
42866;SDS011;39461;40.948;73.006;2023-03-14T00:19:48;4.80;;;1.70;;
42866;SDS011;39461;40.948;73.006;2023-03-14T00:22:24;6.72;;;2.63;;
42866;SDS011;39461;40.948;73.006;2023-03-14T00:24:57;5.60;;;2.03;;
42866;SDS011;39461;40.948;73.006;2023-03-14T00:27:26;4.13;;;2.28;;
42866;SDS011;39461;40.948;73.006;2023-03-14T00:29:55;5.55;;;2.20;;
42866;SDS011;39461;40.948;73.006;2023-03-14T00:32:28;5.22;;;2.35;;
42866;SDS011;39461;40.948;73.006;2023-03-14T00:35:08;6.25;;;2.95;;
42866;SDS011;39461;40.948;73.006;2023-03-14T00:37:47;10.00;;;4.32;;
42866;SDS011;39461;40.948;73.006;2023-03-14T00:40:20;7.93;;;3.22;;
42866;SDS011;39461;40.948;73.006;2023-03-14T00:42:54;6.68;;;3.60;;
42866;SDS011;39461;40.948;73.006;2023-03-14T00:45:27;10.98;;;3.92;;
42866;SDS011;39461;40.948;73.006;2023-03-14T00:48:00;6.82;;;3.85;;
42866;SDS011;39461;40.948;73.006;2023-03-14T00:50:33;8.50;;;4.22;;
42866;SDS011;39461;40.948;73.006;2023-03-14T00:53:06;7.40;;;3.50;;
42866;SDS011;39461;40.948;73.006;2023-03-14T00:55:39;8.85;;;4.47;;
42866;SDS011;39461;40.948;73.006;2023-03-14T00:58:20;7.88;;;4.35;;
42866;SDS011;39461;40.948;73.006;2023-03-14T01:00:53;7.88;;;4.47;;
42866;SDS011;39461;40.948;73.006;2023-03-14T01:03:26;10.05;;;5.45;;
42866;SDS011;39461;40.948;73.006;2023-03-14T01:06:12;6.97;;;4.00;;
42866;SDS011;39461;40.948;73.006;2023-03-14T01:08:46;11.10;;;4.75;;
42866;SDS011;39461;40.948;73.006;2023-03-14T01:11:21;10.65;;;5.07;;
42866;SDS011;39461;40.948;73.006;2023-03-14T01:13:54;15.88;;;6.57;;
42866;SDS011;39461;40.948;73.006;2023-03-14T01:16:29;20.92;;;8.93;;
42866;SDS011;39461;40.948;73.006;2023-03-14T01:19:02;27.13;;;9.77;;
42866;SDS011;39461;40.948;73.006;2023-03-14T01:21:35;21.75;;;9.48;;
42866;SDS011;39461;40.948;73.006;2023-03-14T01:24:10;22.52;;;9.80;;
42866;SDS011;39461;40.948;73.006;2023-03-14T01:26:44;21.40;;;9.15;;
42866;SDS011;39461;40.948;73.006;2023-03-14T01:29:17;18.95;;;8.27;;
42866;SDS011;39461;40.948;73.006;2023-03-14T01:31:50;16.20;;;7.55;;
42866;SDS011;39461;40.948;73.006;2023-03-14T01:34:23;18.77;;;8.23;;
42866;SDS011;39461;40.948;73.006;2023-03-14T01:37:04;16.90;;;7.60;;
42866;SDS011;39461;40.948;73.006;2023-03-14T01:39:39;20.88;;;6.55;;
42866;SDS011;39461;40.948;73.006;2023-03-14T01:42:12;14.20;;;5.93;;
42866;SDS011;39461;40.948;73.006;2023-03-14T01:44:56;14.27;;;6.35;;
42866;SDS011;39461;40.948;73.006;2023-03-14T01:47:29;16.90;;;7.43;;
42866;SDS011;39461;40.948;73.006;2023-03-14T01:50:06;18.88;;;8.90;;
42866;SDS011;39461;40.948;73.006;2023-03-14T01:52:46;17.42;;;8.50;;
42866;SDS011;39461;40.948;73.006;2023-03-14T01:55:21;23.38;;;10.00;;
42866;SDS011;39461;40.948;73.006;2023-03-14T01:57:58;31.70;;;12.82;;
42866;SDS011;39461;40.948;73.006;2023-03-14T02:00:32;33.60;;;12.45;;
42866;SDS011;39461;40.948;73.006;2023-03-14T02:03:06;30.27;;;9.77;;
42866;SDS011;39461;40.948;73.006;2023-03-14T02:05:41;22.50;;;9.75;;
42866;SDS011;39461;40.948;73.006;2023-03-14T02:08:20;19.77;;;8.95;;
42866;SDS011;39461;40.948;73.006;2023-03-14T02:10:54;22.92;;;8.23;;
42866;SDS011;39461;40.948;73.006;2023-03-14T02:13:33;23.38;;;8.23;;
42866;SDS011;39461;40.948;73.006;2023-03-14T02:16:12;18.48;;;9.35;;
42866;SDS011;39461;40.948;73.006;2023-03-14T02:18:47;19.77;;;10.48;;
42866;SDS011;39461;40.948;73.006;2023-03-14T02:21:23;20.33;;;9.07;;
42866;SDS011;39461;40.948;73.006;2023-03-14T02:24:05;20.67;;;8.98;;
42866;SDS011;39461;40.948;73.006;2023-03-14T02:29:07;14.15;;;6.82;;
42866;SDS011;39461;40.948;73.006;2023-03-14T02:31:42;22.25;;;8.00;;
42866;SDS011;39461;40.948;73.006;2023-03-14T02:34:17;17.58;;;7.32;;
42866;SDS011;39461;40.948;73.006;2023-03-14T02:36:52;17.38;;;7.55;;
42866;SDS011;39461;40.948;73.006;2023-03-14T02:39:27;20.77;;;7.75;;
42866;SDS011;39461;40.948;73.006;2023-03-14T02:42:04;17.08;;;8.35;;
42866;SDS011;39461;40.948;73.006;2023-03-14T02:44:54;20.85;;;10.02;;
42866;SDS011;39461;40.948;73.006;2023-03-14T02:47:29;20.90;;;9.00;;
42866;SDS011;39461;40.948;73.006;2023-03-14T02:50:06;19.90;;;8.55;;
42866;SDS011;39461;40.948;73.006;2023-03-14T02:52:41;15.50;;;7.47;;
42866;SDS011;39461;40.948;73.006;2023-03-14T02:55:14;24.15;;;8.30;;
42866;SDS011;39461;40.948;73.006;2023-03-14T02:57:49;13.90;;;6.95;;
42866;SDS011;39461;40.948;73.006;2023-03-14T03:00:23;14.27;;;7.05;;
42866;SDS011;39461;40.948;73.006;2023-03-14T03:02:56;15.15;;;7.20;;
42866;SDS011;39461;40.948;73.006;2023-03-14T03:05:31;9.98;;;6.60;;
42866;SDS011;39461;40.948;73.006;2023-03-14T03:08:06;11.85;;;6.93;;
42866;SDS011;39461;40.948;73.006;2023-03-14T03:10:41;21.42;;;7.53;;
42866;SDS011;39461;40.948;73.006;2023-03-14T03:13:14;13.13;;;6.20;;
42866;SDS011;39461;40.948;73.006;2023-03-14T03:15:48;13.40;;;6.18;;
42866;SDS011;39461;40.948;73.006;2023-03-14T03:18:21;12.65;;;6.32;;
42866;SDS011;39461;40.948;73.006;2023-03-14T03:20:54;17.52;;;5.97;;
42866;SDS011;39461;40.948;73.006;2023-03-14T03:23:31;18.98;;;6.47;;
42866;SDS011;39461;40.948;73.006;2023-03-14T03:26:04;15.63;;;6.90;;
42866;SDS011;39461;40.948;73.006;2023-03-14T03:28:38;12.05;;;6.18;;
42866;SDS011;39461;40.948;73.006;2023-03-14T03:31:11;12.70;;;6.22;;
42866;SDS011;39461;40.948;73.006;2023-03-14T03:33:44;13.88;;;6.90;;
42866;SDS011;39461;40.948;73.006;2023-03-14T03:36:20;16.85;;;6.53;;
42866;SDS011;39461;40.948;73.006;2023-03-14T03:38:54;14.15;;;6.82;;
42866;SDS011;39461;40.948;73.006;2023-03-14T03:41:27;13.35;;;6.80;;
42866;SDS011;39461;40.948;73.006;2023-03-14T03:44:01;15.75;;;6.72;;
42866;SDS011;39461;40.948;73.006;2023-03-14T03:46:36;19.08;;;6.88;;
42866;SDS011;39461;40.948;73.006;2023-03-14T03:49:09;13.73;;;6.85;;
42866;SDS011;39461;40.948;73.006;2023-03-14T03:51:42;15.90;;;5.95;;
42866;SDS011;39461;40.948;73.006;2023-03-14T03:54:15;12.13;;;5.88;;
42866;SDS011;39461;40.948;73.006;2023-03-14T03:56:50;11.52;;;5.80;;
42866;SDS011;39461;40.948;73.006;2023-03-14T03:59:23;15.60;;;6.97;;
42866;SDS011;39461;40.948;73.006;2023-03-14T04:01:57;16.80;;;6.63;;
42866;SDS011;39461;40.948;73.006;2023-03-14T04:04:30;11.98;;;5.70;;
42866;SDS011;39461;40.948;73.006;2023-03-14T04:07:03;9.38;;;5.68;;
42866;SDS011;39461;40.948;73.006;2023-03-14T04:09:37;11.27;;;6.60;;
42866;SDS011;39461;40.948;73.006;2023-03-14T04:12:12;18.10;;;5.85;;
42866;SDS011;39461;40.948;73.006;2023-03-14T04:14:45;19.30;;;7.78;;
42866;SDS011;39461;40.948;73.006;2023-03-14T04:20:19;21.60;;;7.85;;
42866;SDS011;39461;40.948;73.006;2023-03-14T04:22:53;11.27;;;5.72;;
42866;SDS011;39461;40.948;73.006;2023-03-14T04:25:27;29.20;;;9.25;;
42866;SDS011;39461;40.948;73.006;2023-03-14T04:27:56;17.45;;;6.32;;
42866;SDS011;39461;40.948;73.006;2023-03-14T04:30:25;13.20;;;6.72;;
42866;SDS011;39461;40.948;73.006;2023-03-14T04:32:58;11.52;;;5.68;;
42866;SDS011;39461;40.948;73.006;2023-03-14T04:38:30;13.27;;;4.47;;
42866;SDS011;39461;40.948;73.006;2023-03-14T04:41:03;5.15;;;2.25;;
42866;SDS011;39461;40.948;73.006;2023-03-14T04:43:40;3.47;;;2.30;;
42866;SDS011;39461;40.948;73.006;2023-03-14T04:46:13;9.10;;;3.90;;
42866;SDS011;39461;40.948;73.006;2023-03-14T04:48:48;10.65;;;4.45;;
42866;SDS011;39461;40.948;73.006;2023-03-14T04:51:25;6.60;;;3.45;;
42866;SDS011;39461;40.948;73.006;2023-03-14T04:53:59;9.95;;;4.07;;
42866;SDS011;39461;40.948;73.006;2023-03-14T04:56:32;9.55;;;4.72;;
42866;SDS011;39461;40.948;73.006;2023-03-14T04:59:07;8.85;;;3.90;;
42866;SDS011;39461;40.948;73.006;2023-03-14T05:01:42;10.48;;;3.78;;
42866;SDS011;39461;40.948;73.006;2023-03-14T05:04:17;11.77;;;4.18;;
42866;SDS011;39461;40.948;73.006;2023-03-14T05:06:56;7.45;;;4.40;;
42866;SDS011;39461;40.948;73.006;2023-03-14T05:09:31;8.52;;;3.88;;
42866;SDS011;39461;40.948;73.006;2023-03-14T05:12:10;8.45;;;4.78;;
42866;SDS011;39461;40.948;73.006;2023-03-14T05:14:45;8.95;;;4.00;;
42866;SDS011;39461;40.948;73.006;2023-03-14T05:17:21;8.88;;;3.70;;
42866;SDS011;39461;40.948;73.006;2023-03-14T05:19:56;7.40;;;3.40;;
42866;SDS011;39461;40.948;73.006;2023-03-14T05:22:31;6.60;;;3.40;;
42866;SDS011;39461;40.948;73.006;2023-03-14T05:25:10;11.07;;;3.60;;
42866;SDS011;39461;40.948;73.006;2023-03-14T05:27:49;9.27;;;3.65;;
42866;SDS011;39461;40.948;73.006;2023-03-14T05:30:24;5.05;;;3.03;;
42866;SDS011;39461;40.948;73.006;2023-03-14T05:32:55;10.05;;;4.25;;
42866;SDS011;39461;40.948;73.006;2023-03-14T05:35:30;9.00;;;4.15;;
42866;SDS011;39461;40.948;73.006;2023-03-14T05:38:05;9.82;;;3.70;;
42866;SDS011;39461;40.948;73.006;2023-03-14T05:40:48;5.88;;;3.17;;
42866;SDS011;39461;40.948;73.006;2023-03-14T05:43:23;8.10;;;3.63;;
42866;SDS011;39461;40.948;73.006;2023-03-14T05:45:57;8.38;;;3.75;;
42866;SDS011;39461;40.948;73.006;2023-03-14T05:48:30;5.97;;;3.38;;
42866;SDS011;39461;40.948;73.006;2023-03-14T05:51:03;7.28;;;3.70;;
42866;SDS011;39461;40.948;73.006;2023-03-14T05:53:38;6.53;;;3.72;;
42866;SDS011;39461;40.948;73.006;2023-03-14T05:56:11;5.68;;;3.38;;
42866;SDS011;39461;40.948;73.006;2023-03-14T05:58:44;7.18;;;3.50;;
42866;SDS011;39461;40.948;73.006;2023-03-14T06:04:17;7.90;;;4.40;;
42866;SDS011;39461;40.948;73.006;2023-03-14T06:06:51;6.53;;;3.80;;
42866;SDS011;39461;40.948;73.006;2023-03-14T06:09:24;4.40;;;2.65;;
42866;SDS011;39461;40.948;73.006;2023-03-14T06:11:59;7.07;;;3.70;;
42866;SDS011;39461;40.948;73.006;2023-03-14T06:14:32;7.43;;;3.30;;
42866;SDS011;39461;40.948;73.006;2023-03-14T06:17:04;5.82;;;3.50;;
42866;SDS011;39461;40.948;73.006;2023-03-14T06:19:40;10.07;;;3.80;;
42866;SDS011;39461;40.948;73.006;2023-03-14T06:22:15;10.40;;;3.42;;
42866;SDS011;39461;40.948;73.006;2023-03-14T06:24:48;6.68;;;4.20;;
42866;SDS011;39461;40.948;73.006;2023-03-14T06:27:20;7.07;;;3.45;;
42866;SDS011;39461;40.948;73.006;2023-03-14T06:29:49;9.13;;;4.20;;
42866;SDS011;39461;40.948;73.006;2023-03-14T06:32:23;9.38;;;3.97;;
42866;SDS011;39461;40.948;73.006;2023-03-14T06:34:56;12.00;;;4.78;;
42866;SDS011;39461;40.948;73.006;2023-03-14T06:37:32;9.10;;;4.93;;
42866;SDS011;39461;40.948;73.006;2023-03-14T06:40:05;15.10;;;5.15;;
42866;SDS011;39461;40.948;73.006;2023-03-14T06:42:39;31.02;;;8.23;;
42866;SDS011;39461;40.948;73.006;2023-03-14T06:45:12;11.77;;;5.32;;
42866;SDS011;39461;40.948;73.006;2023-03-14T06:47:45;15.05;;;5.18;;
42866;SDS011;39461;40.948;73.006;2023-03-14T06:50:20;10.80;;;4.50;;
42866;SDS011;39461;40.948;73.006;2023-03-14T06:53:01;10.65;;;5.32;;
42866;SDS011;39461;40.948;73.006;2023-03-14T06:55:36;15.18;;;5.60;;
42866;SDS011;39461;40.948;73.006;2023-03-14T06:58:09;22.60;;;6.75;;
42866;SDS011;39461;40.948;73.006;2023-03-14T07:00:44;14.07;;;5.60;;
42866;SDS011;39461;40.948;73.006;2023-03-14T07:03:18;17.65;;;5.90;;
42866;SDS011;39461;40.948;73.006;2023-03-14T07:05:51;9.65;;;5.57;;
42866;SDS011;39461;40.948;73.006;2023-03-14T07:08:24;14.30;;;6.75;;
42866;SDS011;39461;40.948;73.006;2023-03-14T07:10:57;10.07;;;5.55;;
42866;SDS011;39461;40.948;73.006;2023-03-14T07:13:37;15.00;;;6.22;;
42866;SDS011;39461;40.948;73.006;2023-03-14T07:16:12;17.80;;;6.55;;
42866;SDS011;39461;40.948;73.006;2023-03-14T07:18:45;14.57;;;6.18;;
42866;SDS011;39461;40.948;73.006;2023-03-14T07:21:23;11.25;;;5.85;;
42866;SDS011;39461;40.948;73.006;2023-03-14T07:23:56;8.45;;;5.32;;
42866;SDS011;39461;40.948;73.006;2023-03-14T07:26:29;12.75;;;5.88;;
42866;SDS011;39461;40.948;73.006;2023-03-14T07:29:02;10.30;;;5.00;;
42866;SDS011;39461;40.948;73.006;2023-03-14T07:31:35;10.00;;;5.30;;
42866;SDS011;39461;40.948;73.006;2023-03-14T07:34:08;11.85;;;5.60;;
42866;SDS011;39461;40.948;73.006;2023-03-14T07:36:47;21.15;;;6.15;;
42866;SDS011;39461;40.948;73.006;2023-03-14T07:39:22;8.63;;;5.13;;
42866;SDS011;39461;40.948;73.006;2023-03-14T07:41:56;12.05;;;5.85;;
42866;SDS011;39461;40.948;73.006;2023-03-14T07:44:29;9.35;;;5.95;;
42866;SDS011;39461;40.948;73.006;2023-03-14T07:47:02;14.25;;;6.20;;
42866;SDS011;39461;40.948;73.006;2023-03-14T07:49:41;11.40;;;5.70;;
42866;SDS011;39461;40.948;73.006;2023-03-14T07:52:18;13.48;;;5.72;;
42866;SDS011;39461;40.948;73.006;2023-03-14T07:54:55;12.80;;;6.72;;
42866;SDS011;39461;40.948;73.006;2023-03-14T07:57:29;9.52;;;5.38;;
42866;SDS011;39461;40.948;73.006;2023-03-14T08:00:02;13.25;;;6.50;;
42866;SDS011;39461;40.948;73.006;2023-03-14T08:05:38;22.15;;;16.95;;
42866;SDS011;39461;40.948;73.006;2023-03-14T08:08:12;15.15;;;9.82;;
42866;SDS011;39461;40.948;73.006;2023-03-14T08:10:45;18.25;;;7.28;;
42866;SDS011;39461;40.948;73.006;2023-03-14T08:13:20;9.20;;;6.00;;
42866;SDS011;39461;40.948;73.006;2023-03-14T08:15:57;10.07;;;7.28;;
42866;SDS011;39461;40.948;73.006;2023-03-14T08:18:30;13.23;;;6.90;;
42866;SDS011;39461;40.948;73.006;2023-03-14T08:21:03;10.00;;;6.43;;
42866;SDS011;39461;40.948;73.006;2023-03-14T08:23:30;12.32;;;6.22;;
42866;SDS011;39461;40.948;73.006;2023-03-14T08:26:01;12.95;;;7.43;;
42866;SDS011;39461;40.948;73.006;2023-03-14T08:28:28;9.52;;;6.45;;
42866;SDS011;39461;40.948;73.006;2023-03-14T08:31:00;11.15;;;6.40;;
42866;SDS011;39461;40.948;73.006;2023-03-14T08:33:34;13.48;;;6.60;;
42866;SDS011;39461;40.948;73.006;2023-03-14T08:36:07;9.63;;;5.82;;
42866;SDS011;39461;40.948;73.006;2023-03-14T08:38:42;13.65;;;6.07;;
42866;SDS011;39461;40.948;73.006;2023-03-14T08:41:20;14.63;;;5.88;;
42866;SDS011;39461;40.948;73.006;2023-03-14T08:43:47;14.55;;;5.95;;
42866;SDS011;39461;40.948;73.006;2023-03-14T08:46:22;12.35;;;6.07;;
42866;SDS011;39461;40.948;73.006;2023-03-14T08:48:57;16.70;;;7.10;;
42866;SDS011;39461;40.948;73.006;2023-03-14T08:51:32;15.98;;;6.13;;
42866;SDS011;39461;40.948;73.006;2023-03-14T08:54:11;18.98;;;6.53;;
42866;SDS011;39461;40.948;73.006;2023-03-14T08:56:46;16.58;;;6.55;;
42866;SDS011;39461;40.948;73.006;2023-03-14T09:02:23;12.68;;;6.20;;
42866;SDS011;39461;40.948;73.006;2023-03-14T09:04:52;15.18;;;11.02;;
42866;SDS011;39461;40.948;73.006;2023-03-14T09:07:26;21.05;;;7.15;;
42866;SDS011;39461;40.948;73.006;2023-03-14T09:10:01;20.33;;;6.63;;
42866;SDS011;39461;40.948;73.006;2023-03-14T09:12:34;21.67;;;6.40;;
42866;SDS011;39461;40.948;73.006;2023-03-14T09:15:11;29.08;;;11.57;;
42866;SDS011;39461;40.948;73.006;2023-03-14T09:17:46;13.90;;;6.63;;
42866;SDS011;39461;40.948;73.006;2023-03-14T09:20:13;19.33;;;6.65;;
42866;SDS011;39461;40.948;73.006;2023-03-14T09:22:48;14.10;;;7.13;;
42866;SDS011;39461;40.948;73.006;2023-03-14T09:25:21;11.80;;;6.18;;
42866;SDS011;39461;40.948;73.006;2023-03-14T09:27:56;11.55;;;5.45;;
42866;SDS011;39461;40.948;73.006;2023-03-14T09:30:33;8.10;;;5.38;;
42866;SDS011;39461;40.948;73.006;2023-03-14T09:33:06;10.50;;;6.18;;
42866;SDS011;39461;40.948;73.006;2023-03-14T09:35:39;16.60;;;4.70;;
42866;SDS011;39461;40.948;73.006;2023-03-14T09:38:18;10.07;;;4.70;;
42866;SDS011;39461;40.948;73.006;2023-03-14T09:40:52;11.10;;;4.78;;
42866;SDS011;39461;40.948;73.006;2023-03-14T09:43:31;7.35;;;4.75;;
42866;SDS011;39461;40.948;73.006;2023-03-14T09:49:11;27.77;;;8.82;;
42866;SDS011;39461;40.948;73.006;2023-03-14T09:51:51;11.05;;;4.57;;
42866;SDS011;39461;40.948;73.006;2023-03-14T09:54:36;8.77;;;4.93;;
42866;SDS011;39461;40.948;73.006;2023-03-14T09:57:15;6.00;;;4.35;;
42866;SDS011;39461;40.948;73.006;2023-03-14T09:59:50;8.80;;;4.55;;
42866;SDS011;39461;40.948;73.006;2023-03-14T10:02:32;13.52;;;4.35;;
42866;SDS011;39461;40.948;73.006;2023-03-14T10:05:13;11.23;;;4.10;;
42866;SDS011;39461;40.948;73.006;2023-03-14T10:07:49;9.52;;;4.72;;
42866;SDS011;39461;40.948;73.006;2023-03-14T10:10:25;6.40;;;4.28;;
42866;SDS011;39461;40.948;73.006;2023-03-14T10:15:42;9.38;;;4.35;;
42866;SDS011;39461;40.948;73.006;2023-03-14T10:18:20;8.40;;;4.38;;
42866;SDS011;39461;40.948;73.006;2023-03-14T10:23:40;7.28;;;4.32;;
42866;SDS011;39461;40.948;73.006;2023-03-14T10:26:27;7.95;;;4.43;;
42866;SDS011;39461;40.948;73.006;2023-03-14T10:29:02;8.18;;;4.28;;
42866;SDS011;39461;40.948;73.006;2023-03-14T10:31:45;24.88;;;6.50;;
42866;SDS011;39461;40.948;73.006;2023-03-14T10:37:20;10.05;;;4.65;;
42866;SDS011;39461;40.948;73.006;2023-03-14T10:39:59;11.55;;;4.65;;
42866;SDS011;39461;40.948;73.006;2023-03-14T10:42:40;14.88;;;4.75;;
42866;SDS011;39461;40.948;73.006;2023-03-14T10:45:29;19.58;;;6.70;;
42866;SDS011;39461;40.948;73.006;2023-03-14T10:48:19;8.77;;;4.75;;
42866;SDS011;39461;40.948;73.006;2023-03-14T10:50:56;11.98;;;4.97;;
42866;SDS011;39461;40.948;73.006;2023-03-14T10:53:48;14.95;;;4.88;;
42866;SDS011;39461;40.948;73.006;2023-03-14T10:56:22;10.90;;;5.03;;
42866;SDS011;39461;40.948;73.006;2023-03-14T10:58:56;9.55;;;4.53;;
42866;SDS011;39461;40.948;73.006;2023-03-14T11:09:47;7.53;;;4.75;;
42866;SDS011;39461;40.948;73.006;2023-03-14T11:15:19;121.85;;;63.40;;
42866;SDS011;39461;40.948;73.006;2023-03-14T11:23:47;51.47;;;26.65;;
42866;SDS011;39461;40.948;73.006;2023-03-14T11:29:02;42.38;;;22.52;;
42866;SDS011;39461;40.948;73.006;2023-03-14T11:31:44;24.60;;;14.43;;
42866;SDS011;39461;40.948;73.006;2023-03-14T11:34:28;13.88;;;7.68;;
42866;SDS011;39461;40.948;73.006;2023-03-14T11:37:06;27.65;;;15.40;;
42866;SDS011;39461;40.948;73.006;2023-03-14T11:39:49;111.57;;;56.55;;
42866;SDS011;39461;40.948;73.006;2023-03-14T11:42:27;54.40;;;31.55;;
42866;SDS011;39461;40.948;73.006;2023-03-14T11:45:02;27.27;;;9.93;;
42866;SDS011;39461;40.948;73.006;2023-03-14T11:47:37;27.55;;;15.05;;
42866;SDS011;39461;40.948;73.006;2023-03-14T11:53:36;38.40;;;21.27;;
42866;SDS011;39461;40.948;73.006;2023-03-14T11:56:13;17.05;;;9.77;;
42866;SDS011;39461;40.948;73.006;2023-03-14T11:58:54;15.10;;;7.47;;
42866;SDS011;39461;40.948;73.006;2023-03-14T12:01:37;21.08;;;11.52;;
42866;SDS011;39461;40.948;73.006;2023-03-14T12:06:58;43.97;;;25.15;;
42866;SDS011;39461;40.948;73.006;2023-03-14T12:09:34;45.92;;;24.08;;
42866;SDS011;39461;40.948;73.006;2023-03-14T12:12:10;16.02;;;9.82;;
42866;SDS011;39461;40.948;73.006;2023-03-14T12:14:52;12.90;;;8.48;;
42866;SDS011;39461;40.948;73.006;2023-03-14T12:17:40;13.27;;;9.07;;
42866;SDS011;39461;40.948;73.006;2023-03-14T12:20:16;17.02;;;9.05;;
42866;SDS011;39461;40.948;73.006;2023-03-14T12:22:50;13.60;;;7.60;;
42866;SDS011;39461;40.948;73.006;2023-03-14T12:25:26;17.08;;;7.63;;
42866;SDS011;39461;40.948;73.006;2023-03-14T12:30:44;11.30;;;7.32;;
42866;SDS011;39461;40.948;73.006;2023-03-14T12:36:03;19.08;;;7.30;;
42866;SDS011;39461;40.948;73.006;2023-03-14T12:38:45;14.23;;;7.30;;
42866;SDS011;39461;40.948;73.006;2023-03-14T12:44:17;17.35;;;7.60;;
42866;SDS011;39461;40.948;73.006;2023-03-14T12:50:07;16.05;;;7.75;;
42866;SDS011;39461;40.948;73.006;2023-03-14T13:01:14;22.83;;;11.32;;
42866;SDS011;39461;40.948;73.006;2023-03-14T13:03:52;20.17;;;10.30;;
42866;SDS011;39461;40.948;73.006;2023-03-14T13:12:10;25.90;;;12.85;;
42866;SDS011;39461;40.948;73.006;2023-03-14T13:14:50;26.58;;;12.25;;
42866;SDS011;39461;40.948;73.006;2023-03-14T13:17:28;23.48;;;11.38;;
42866;SDS011;39461;40.948;73.006;2023-03-14T13:20:05;20.88;;;10.65;;
42866;SDS011;39461;40.948;73.006;2023-03-14T13:22:46;40.50;;;12.98;;
42866;SDS011;39461;40.948;73.006;2023-03-14T13:25:24;34.85;;;14.48;;
42866;SDS011;39461;40.948;73.006;2023-03-14T13:28:02;53.03;;;21.95;;
42866;SDS011;39461;40.948;73.006;2023-03-14T13:30:40;57.60;;;24.50;;
42866;SDS011;39461;40.948;73.006;2023-03-14T13:33:14;69.47;;;30.45;;
42866;SDS011;39461;40.948;73.006;2023-03-14T13:36:03;79.70;;;42.60;;
42866;SDS011;39461;40.948;73.006;2023-03-14T13:38:39;83.82;;;43.28;;
42866;SDS011;39461;40.948;73.006;2023-03-14T13:41:16;76.30;;;43.30;;
42866;SDS011;39461;40.948;73.006;2023-03-14T13:43:49;86.07;;;39.28;;
42866;SDS011;39461;40.948;73.006;2023-03-14T13:46:22;90.40;;;40.75;;
42866;SDS011;39461;40.948;73.006;2023-03-14T13:48:57;78.95;;;40.67;;
42866;SDS011;39461;40.948;73.006;2023-03-14T13:51:31;97.63;;;48.78;;
42866;SDS011;39461;40.948;73.006;2023-03-14T13:54:12;117.80;;;56.60;;
42866;SDS011;39461;40.948;73.006;2023-03-14T13:56:46;115.20;;;56.97;;
42866;SDS011;39461;40.948;73.006;2023-03-14T13:59:23;117.25;;;61.25;;
42866;SDS011;39461;40.948;73.006;2023-03-14T14:01:58;116.70;;;66.22;;
42866;SDS011;39461;40.948;73.006;2023-03-14T14:04:33;143.30;;;83.50;;
42866;SDS011;39461;40.948;73.006;2023-03-14T14:07:09;149.07;;;76.30;;
42866;SDS011;39461;40.948;73.006;2023-03-14T14:09:48;135.05;;;62.65;;
42866;SDS011;39461;40.948;73.006;2023-03-14T14:15:04;121.93;;;63.15;;
42866;SDS011;39461;40.948;73.006;2023-03-14T14:17:41;134.63;;;66.15;;
42866;SDS011;39461;40.948;73.006;2023-03-14T14:23:00;142.95;;;74.68;;
42866;SDS011;39461;40.948;73.006;2023-03-14T14:25:35;154.60;;;81.22;;
42866;SDS011;39461;40.948;73.006;2023-03-14T14:33:42;143.85;;;73.07;;
42866;SDS011;39461;40.948;73.006;2023-03-14T14:36:17;135.23;;;70.28;;
42866;SDS011;39461;40.948;73.006;2023-03-14T14:38:54;128.07;;;69.45;;
42866;SDS011;39461;40.948;73.006;2023-03-14T14:41:32;128.45;;;66.07;;
42866;SDS011;39461;40.948;73.006;2023-03-14T14:44:07;129.57;;;69.38;;
42866;SDS011;39461;40.948;73.006;2023-03-14T14:46:40;137.52;;;72.32;;
42866;SDS011;39461;40.948;73.006;2023-03-14T14:49:18;129.00;;;71.57;;
42866;SDS011;39461;40.948;73.006;2023-03-14T14:51:59;125.63;;;73.05;;
42866;SDS011;39461;40.948;73.006;2023-03-14T14:54:34;143.32;;;79.90;;
42866;SDS011;39461;40.948;73.006;2023-03-14T14:57:15;137.45;;;75.05;;
42866;SDS011;39461;40.948;73.006;2023-03-14T14:59:54;172.45;;;85.70;;
42866;SDS011;39461;40.948;73.006;2023-03-14T15:02:37;158.88;;;87.50;;
42866;SDS011;39461;40.948;73.006;2023-03-14T15:08:15;80.82;;;48.78;;
42866;SDS011;39461;40.948;73.006;2023-03-14T15:10:52;81.30;;;41.22;;
42866;SDS011;39461;40.948;73.006;2023-03-14T15:13:27;115.55;;;47.25;;
42866;SDS011;39461;40.948;73.006;2023-03-14T15:16:02;104.88;;;56.13;;
42866;SDS011;39461;40.948;73.006;2023-03-14T15:18:35;109.80;;;63.60;;
42866;SDS011;39461;40.948;73.006;2023-03-14T15:21:09;126.68;;;61.85;;
42866;SDS011;39461;40.948;73.006;2023-03-14T15:23:44;103.60;;;58.35;;
42866;SDS011;39461;40.948;73.006;2023-03-14T15:26:21;97.68;;;58.00;;
42866;SDS011;39461;40.948;73.006;2023-03-14T15:28:56;89.63;;;53.65;;
42866;SDS011;39461;40.948;73.006;2023-03-14T15:31:29;79.75;;;45.10;;
42866;SDS011;39461;40.948;73.006;2023-03-14T15:34:09;79.88;;;42.42;;
42866;SDS011;39461;40.948;73.006;2023-03-14T15:36:43;72.18;;;40.10;;
42866;SDS011;39461;40.948;73.006;2023-03-14T15:39:16;73.32;;;41.17;;
42866;SDS011;39461;40.948;73.006;2023-03-14T15:41:49;57.95;;;34.58;;
42866;SDS011;39461;40.948;73.006;2023-03-14T15:44:24;56.55;;;32.20;;
42866;SDS011;39461;40.948;73.006;2023-03-14T15:46:59;49.08;;;28.50;;
42866;SDS011;39461;40.948;73.006;2023-03-14T15:49:34;49.25;;;26.77;;
42866;SDS011;39461;40.948;73.006;2023-03-14T15:52:08;40.47;;;23.92;;
42866;SDS011;39461;40.948;73.006;2023-03-14T15:54:41;43.83;;;24.55;;
42866;SDS011;39461;40.948;73.006;2023-03-14T15:57:14;43.75;;;24.73;;
42866;SDS011;39461;40.948;73.006;2023-03-14T15:59:53;58.30;;;27.05;;
42866;SDS011;39461;40.948;73.006;2023-03-14T16:02:26;43.38;;;25.85;;
42866;SDS011;39461;40.948;73.006;2023-03-14T16:05:00;45.40;;;26.20;;
42866;SDS011;39461;40.948;73.006;2023-03-14T16:07:33;42.83;;;24.85;;
42866;SDS011;39461;40.948;73.006;2023-03-14T16:10:09;46.28;;;23.63;;
42866;SDS011;39461;40.948;73.006;2023-03-14T16:16:02;37.58;;;21.83;;
42866;SDS011;39461;40.948;73.006;2023-03-14T16:18:38;40.70;;;21.15;;
42866;SDS011;39461;40.948;73.006;2023-03-14T16:21:14;36.10;;;20.15;;
42866;SDS011;39461;40.948;73.006;2023-03-14T16:23:51;38.97;;;19.70;;
42866;SDS011;39461;40.948;73.006;2023-03-14T16:26:26;31.80;;;17.42;;
42866;SDS011;39461;40.948;73.006;2023-03-14T16:28:53;36.80;;;17.75;;
42866;SDS011;39461;40.948;73.006;2023-03-14T16:31:22;26.85;;;15.68;;
42866;SDS011;39461;40.948;73.006;2023-03-14T16:34:00;28.50;;;15.40;;
42866;SDS011;39461;40.948;73.006;2023-03-14T16:36:34;27.27;;;15.18;;
42866;SDS011;39461;40.948;73.006;2023-03-14T16:39:07;24.35;;;13.27;;
42866;SDS011;39461;40.948;73.006;2023-03-14T16:41:42;24.42;;;12.57;;
42866;SDS011;39461;40.948;73.006;2023-03-14T16:44:15;27.80;;;15.18;;
42866;SDS011;39461;40.948;73.006;2023-03-14T16:46:48;27.23;;;16.17;;